createdAt,value
2024-05-09T05:05:54.701Z,6.71
2024-05-09T05:10:58.284Z,6.97
2024-05-09T05:16:01.884Z,7.32
2024-05-09T05:21:05.315Z,7.64
2024-05-09T05:26:09.747Z,7.91
2024-05-09T05:31:12.980Z,8.47
2024-05-09T05:36:16.218Z,8.82
2024-05-09T05:41:19.497Z,9.06
2024-05-09T05:46:22.665Z,9.13
2024-05-09T05:51:25.889Z,9.41
2024-05-09T05:56:29.174Z,9.67
2024-05-09T06:01:32.528Z,10.06
2024-05-09T06:06:35.679Z,10.25
2024-05-09T06:11:41.564Z,10.36
2024-05-09T06:16:45.931Z,10.65
2024-05-09T06:21:49.154Z,10.88
2024-05-09T06:26:52.377Z,11.13
2024-05-09T06:31:57.118Z,11.51
2024-05-09T06:37:02.600Z,12.02
2024-05-09T06:42:05.820Z,12.38
2024-05-09T06:47:09.120Z,12.75
2024-05-09T06:52:12.342Z,13.19
2024-05-09T06:57:15.521Z,13.88
2024-05-09T07:02:18.833Z,14.31
2024-05-09T07:07:22.074Z,14.57
2024-05-09T07:12:25.472Z,15.08
2024-05-09T07:17:28.920Z,15.70
2024-05-09T07:22:32.291Z,15.68
2024-05-09T07:27:35.567Z,16.56
2024-05-09T07:32:38.991Z,17.34
2024-05-09T07:37:42.181Z,17.95
2024-05-09T07:42:46.172Z,18.97
2024-05-09T07:49:13.630Z,19.84
2024-05-09T07:53:37.200Z,24.26
2024-05-09T07:58:35.612Z,31.15
2024-05-09T08:03:39.134Z,32.10
2024-05-09T08:08:42.424Z,34.99
2024-05-09T08:13:45.777Z,35.42
2024-05-09T08:18:49.162Z,33.03
2024-05-09T08:23:52.433Z,25.89
2024-05-09T08:28:55.650Z,24.11
2024-05-09T08:35:02.358Z,23.69
2024-05-09T08:40:08.548Z,22.77
2024-05-09T08:45:14.851Z,22.44
2024-05-09T08:50:28.887Z,22.59
2024-05-09T08:55:42.020Z,22.65
2024-05-09T09:00:47.723Z,22.59
2024-05-09T09:06:02.655Z,22.49
2024-05-09T09:11:05.923Z,22.43
2024-05-09T09:16:09.160Z,22.37
2024-05-09T09:21:12.326Z,22.32
2024-05-09T09:26:18.972Z,22.29
2024-05-09T09:31:22.862Z,22.35
2024-05-09T09:36:30.535Z,22.39
2024-05-09T09:41:36.093Z,22.39
2024-05-09T09:46:40.250Z,22.41
2024-05-09T09:51:44.988Z,22.37
2024-05-09T09:56:48.928Z,22.36
2024-05-09T10:01:52.666Z,22.40
2024-05-09T10:07:02.247Z,22.49
2024-05-09T10:12:13.774Z,22.58
2024-05-09T10:17:18.411Z,22.63
2024-05-09T10:22:28.752Z,22.69
2024-05-09T10:27:32.240Z,22.75
2024-05-09T10:32:40.073Z,22.74
2024-05-09T10:37:46.364Z,22.81
2024-05-09T10:42:49.669Z,22.89
2024-05-09T10:47:53.170Z,22.89
2024-05-09T10:52:56.475Z,22.78
2024-05-09T10:57:59.636Z,22.76
2024-05-09T11:03:03.007Z,22.72
2024-05-09T11:08:06.625Z,22.57
2024-05-09T11:13:09.903Z,22.56
2024-05-09T11:18:25.538Z,22.47
2024-05-09T11:23:30.810Z,22.48
2024-05-09T11:28:34.131Z,22.53
2024-05-09T11:33:41.732Z,22.53
2024-05-09T11:38:45.001Z,22.49
2024-05-09T11:43:48.158Z,22.50
2024-05-09T11:48:51.526Z,22.50
2024-05-09T11:53:54.762Z,22.52
2024-05-09T11:58:58.052Z,22.53
2024-05-09T12:04:01.618Z,22.54
2024-05-09T12:09:05.097Z,22.52
2024-05-09T12:14:08.333Z,22.55
2024-05-09T12:19:11.573Z,22.75
2024-05-09T12:24:18.271Z,23.73
2024-05-09T12:29:21.872Z,23.88
2024-05-09T12:34:25.270Z,23.92
2024-05-09T12:39:28.580Z,23.90
2024-05-09T12:44:31.769Z,23.82
2024-05-09T12:49:35.226Z,23.75
2024-05-09T12:54:38.507Z,23.67
2024-05-09T12:59:43.083Z,23.63
2024-05-09T13:04:46.365Z,23.62
2024-05-09T13:09:49.758Z,23.59
2024-05-09T13:14:52.890Z,23.54
2024-05-09T13:19:56.036Z,23.51
2024-05-09T13:24:59.329Z,23.48
2024-05-09T13:35:06.246Z,23.43
2024-05-09T13:40:12.155Z,23.41
2024-05-09T13:45:17.401Z,23.40
2024-05-09T13:50:30.478Z,23.36
2024-05-09T13:55:40.759Z,23.34
2024-05-09T14:00:48.779Z,23.31
2024-05-09T14:05:52.921Z,23.31
2024-05-09T14:10:56.383Z,23.31
2024-05-09T14:15:59.761Z,23.32
2024-05-09T14:21:03.769Z,23.34
2024-05-09T14:26:06.948Z,23.34
2024-05-09T14:31:10.192Z,23.31
2024-05-09T14:36:13.488Z,23.27
2024-05-09T14:41:16.659Z,23.26
2024-05-09T14:46:20.014Z,23.29
2024-05-09T14:51:23.353Z,23.34
2024-05-09T14:56:26.585Z,23.30
2024-05-09T15:01:29.775Z,23.21
2024-05-09T15:06:33.322Z,23.14
2024-05-09T15:11:36.659Z,23.08
2024-05-09T15:16:39.932Z,23.03
2024-05-09T15:21:43.126Z,23.00
2024-05-09T15:26:46.289Z,22.98
2024-05-09T15:31:49.543Z,22.95
2024-05-09T15:36:52.886Z,22.91
2024-05-09T15:41:57.571Z,22.89
2024-05-09T15:47:00.737Z,22.86
2024-05-09T15:52:03.967Z,22.83
2024-05-09T15:57:07.735Z,22.81
2024-05-09T16:02:11.537Z,22.77
2024-05-09T16:07:15.112Z,22.74
2024-05-09T16:12:18.367Z,22.72
2024-05-09T16:17:21.619Z,22.68
2024-05-09T16:22:24.843Z,22.62
2024-05-09T16:27:28.077Z,22.61
2024-05-09T16:32:31.351Z,22.58
2024-05-09T16:37:34.566Z,22.57
2024-05-09T16:42:37.760Z,22.54
2024-05-09T16:47:41.172Z,22.53
2024-05-09T16:52:44.627Z,22.53
2024-05-09T16:57:48.701Z,22.49
2024-05-09T17:02:54.505Z,22.46
2024-05-09T17:07:58.084Z,22.42
2024-05-09T17:13:01.436Z,22.40
2024-05-09T17:18:05.210Z,22.34
2024-05-09T17:23:13.276Z,22.29
2024-05-09T17:28:17.539Z,22.29
2024-05-09T17:33:20.802Z,22.25
2024-05-09T17:38:24.092Z,22.22
2024-05-09T17:43:28.370Z,22.18
2024-05-09T17:48:31.938Z,22.11
2024-05-09T17:53:35.566Z,22.09
2024-05-09T17:58:38.850Z,22.03
2024-05-09T18:03:43.798Z,21.97
2024-05-09T18:08:47.023Z,21.94
2024-05-09T18:13:50.452Z,21.86
2024-05-09T18:18:54.084Z,21.83
2024-05-09T18:23:59.679Z,21.78
2024-05-09T18:29:04.536Z,21.75
2024-05-09T18:34:07.752Z,21.69
2024-05-09T18:39:11.125Z,21.69
2024-05-09T18:44:14.898Z,21.66
2024-05-09T18:49:18.440Z,21.63
2024-05-09T18:54:21.996Z,21.61
2024-05-09T18:59:25.152Z,21.55
2024-05-09T19:04:28.422Z,21.53
2024-05-09T19:09:31.686Z,21.48
2024-05-09T19:14:34.894Z,21.46
2024-05-09T19:19:38.255Z,21.24
2024-05-09T19:24:41.445Z,21.01
2024-05-09T19:29:44.625Z,21.18
2024-05-09T19:34:47.776Z,21.18
2024-05-09T19:39:50.958Z,21.15
2024-05-09T19:44:54.149Z,17.36
2024-05-09T19:49:57.353Z,14.53
2024-05-09T19:55:00.665Z,13.33
2024-05-09T20:00:05.879Z,12.70
2024-05-09T20:05:31.250Z,12.27
2024-05-09T20:10:36.169Z,12.00
2024-05-09T20:15:40.307Z,11.74
2024-05-09T20:20:45.185Z,11.49
2024-05-09T20:25:48.755Z,11.28
2024-05-09T20:30:51.936Z,11.06
2024-05-09T20:36:01.596Z,11.01
2024-05-09T20:41:05.561Z,10.87
2024-05-09T20:46:08.785Z,10.74
2024-05-09T20:51:11.975Z,10.61
2024-05-09T20:56:15.132Z,10.48
2024-05-09T21:01:18.343Z,10.30
2024-05-09T21:06:21.598Z,10.16
2024-05-09T21:11:25.326Z,10.00
2024-05-09T21:16:28.777Z,9.93
2024-05-09T21:21:39.724Z,9.84
2024-05-09T21:26:42.908Z,9.87
